sensor_id;sensor_type;location;lat;lon;timestamp;P1;durP1;ratioP1;P2;durP2;ratioP2
21517;SDS011;61765;45.794;24.150;2023-08-06T00:01:01;6.65;;;5.40;;
21517;SDS011;61765;45.794;24.150;2023-08-06T00:09:07;8.82;;;5.75;;
21517;SDS011;61765;45.794;24.150;2023-08-06T00:17:15;7.85;;;5.38;;
21517;SDS011;61765;45.794;24.150;2023-08-06T00:25:20;10.02;;;5.43;;
21517;SDS011;61765;45.794;24.150;2023-08-06T00:33:28;8.48;;;5.10;;
21517;SDS011;61765;45.794;24.150;2023-08-06T00:41:34;8.80;;;5.15;;
21517;SDS011;61765;45.794;24.150;2023-08-06T00:49:42;7.03;;;4.95;;
21517;SDS011;61765;45.794;24.150;2023-08-06T00:57:48;5.50;;;4.63;;
21517;SDS011;61765;45.794;24.150;2023-08-06T01:06:00;7.07;;;4.38;;
21517;SDS011;61765;45.794;24.150;2023-08-06T01:14:08;8.35;;;4.38;;
21517;SDS011;61765;45.794;24.150;2023-08-06T01:22:26;5.32;;;4.25;;
21517;SDS011;61765;45.794;24.150;2023-08-06T01:30:31;5.20;;;4.70;;
21517;SDS011;61765;45.794;24.150;2023-08-06T01:38:45;7.05;;;4.80;;
21517;SDS011;61765;45.794;24.150;2023-08-06T01:46:50;5.55;;;4.45;;
21517;SDS011;61765;45.794;24.150;2023-08-06T01:54:59;4.72;;;4.32;;
21517;SDS011;61765;45.794;24.150;2023-08-06T02:03:05;5.13;;;4.40;;
21517;SDS011;61765;45.794;24.150;2023-08-06T02:11:13;5.07;;;4.32;;
21517;SDS011;61765;45.794;24.150;2023-08-06T02:19:18;4.45;;;4.03;;
21517;SDS011;61765;45.794;24.150;2023-08-06T02:27:26;4.25;;;3.88;;
21517;SDS011;61765;45.794;24.150;2023-08-06T02:35:32;6.88;;;4.20;;
21517;SDS011;61765;45.794;24.150;2023-08-06T02:43:40;4.72;;;3.72;;
21517;SDS011;61765;45.794;24.150;2023-08-06T02:51:46;5.97;;;3.33;;
21517;SDS011;61765;45.794;24.150;2023-08-06T02:59:54;4.38;;;3.40;;
21517;SDS011;61765;45.794;24.150;2023-08-06T03:08:00;4.78;;;3.28;;
21517;SDS011;61765;45.794;24.150;2023-08-06T03:16:11;4.80;;;3.55;;
21517;SDS011;61765;45.794;24.150;2023-08-06T03:24:18;4.63;;;2.92;;
21517;SDS011;61765;45.794;24.150;2023-08-06T03:32:26;3.42;;;2.92;;
21517;SDS011;61765;45.794;24.150;2023-08-06T03:40:34;3.40;;;3.10;;
21517;SDS011;61765;45.794;24.150;2023-08-06T03:48:43;3.75;;;2.80;;
21517;SDS011;61765;45.794;24.150;2023-08-06T03:56:48;4.13;;;2.85;;
21517;SDS011;61765;45.794;24.150;2023-08-06T04:04:57;2.80;;;2.58;;
21517;SDS011;61765;45.794;24.150;2023-08-06T04:13:02;3.38;;;3.00;;
21517;SDS011;61765;45.794;24.150;2023-08-06T04:21:10;5.90;;;3.17;;
21517;SDS011;61765;45.794;24.150;2023-08-06T04:29:16;5.10;;;3.45;;
21517;SDS011;61765;45.794;24.150;2023-08-06T04:37:24;6.22;;;3.42;;
21517;SDS011;61765;45.794;24.150;2023-08-06T04:45:29;5.82;;;3.78;;
21517;SDS011;61765;45.794;24.150;2023-08-06T04:53:37;4.72;;;3.88;;
21517;SDS011;61765;45.794;24.150;2023-08-06T05:01:43;5.18;;;3.67;;
21517;SDS011;61765;45.794;24.150;2023-08-06T05:10:00;3.88;;;3.38;;
21517;SDS011;61765;45.794;24.150;2023-08-06T05:18:06;4.07;;;3.45;;
21517;SDS011;61765;45.794;24.150;2023-08-06T05:26:14;4.07;;;3.17;;
21517;SDS011;61765;45.794;24.150;2023-08-06T05:34:21;3.35;;;3.00;;
21517;SDS011;61765;45.794;24.150;2023-08-06T05:42:29;7.20;;;4.10;;
21517;SDS011;61765;45.794;24.150;2023-08-06T05:50:35;5.95;;;4.25;;
21517;SDS011;61765;45.794;24.150;2023-08-06T05:58:43;5.97;;;4.22;;
21517;SDS011;61765;45.794;24.150;2023-08-06T06:06:49;7.68;;;5.07;;
21517;SDS011;61765;45.794;24.150;2023-08-06T06:14:57;5.63;;;4.32;;
21517;SDS011;61765;45.794;24.150;2023-08-06T06:23:03;7.30;;;4.82;;
21517;SDS011;61765;45.794;24.150;2023-08-06T06:31:11;6.45;;;4.60;;
21517;SDS011;61765;45.794;24.150;2023-08-06T06:39:17;4.88;;;4.22;;
21517;SDS011;61765;45.794;24.150;2023-08-06T06:47:25;7.15;;;4.35;;
21517;SDS011;61765;45.794;24.150;2023-08-06T06:55:31;7.40;;;4.38;;
21517;SDS011;61765;45.794;24.150;2023-08-06T07:03:39;7.03;;;4.22;;
21517;SDS011;61765;45.794;24.150;2023-08-06T07:11:45;5.53;;;4.28;;
21517;SDS011;61765;45.794;24.150;2023-08-06T07:19:53;10.30;;;5.68;;
21517;SDS011;61765;45.794;24.150;2023-08-06T07:27:59;6.85;;;4.30;;
21517;SDS011;61765;45.794;24.150;2023-08-06T07:36:10;8.38;;;4.47;;
21517;SDS011;61765;45.794;24.150;2023-08-06T07:44:19;9.32;;;3.92;;
21517;SDS011;61765;45.794;24.150;2023-08-06T07:52:28;6.10;;;3.53;;
21517;SDS011;61765;45.794;24.150;2023-08-06T08:00:33;4.13;;;2.90;;
21517;SDS011;61765;45.794;24.150;2023-08-06T08:08:42;4.53;;;2.72;;
21517;SDS011;61765;45.794;24.150;2023-08-06T08:16:47;5.25;;;3.42;;
21517;SDS011;61765;45.794;24.150;2023-08-06T08:24:56;5.57;;;3.55;;
21517;SDS011;61765;45.794;24.150;2023-08-06T08:33:01;4.25;;;3.55;;
21517;SDS011;61765;45.794;24.150;2023-08-06T08:41:10;5.53;;;3.80;;
21517;SDS011;61765;45.794;24.150;2023-08-06T08:49:15;3.70;;;3.28;;
21517;SDS011;61765;45.794;24.150;2023-08-06T08:57:25;6.88;;;3.38;;
21517;SDS011;61765;45.794;24.150;2023-08-06T09:05:30;4.68;;;3.55;;
21517;SDS011;61765;45.794;24.150;2023-08-06T09:13:41;5.00;;;4.20;;
21517;SDS011;61765;45.794;24.150;2023-08-06T09:21:46;3.22;;;2.92;;
21517;SDS011;61765;45.794;24.150;2023-08-06T09:29:58;7.18;;;4.55;;
21517;SDS011;61765;45.794;24.150;2023-08-06T09:38:06;4.85;;;3.10;;
21517;SDS011;61765;45.794;24.150;2023-08-06T09:46:15;4.30;;;3.58;;
21517;SDS011;61765;45.794;24.150;2023-08-06T09:54:22;3.17;;;2.80;;
21517;SDS011;61765;45.794;24.150;2023-08-06T10:02:31;4.65;;;3.38;;
21517;SDS011;61765;45.794;24.150;2023-08-06T10:10:38;3.17;;;2.65;;
21517;SDS011;61765;45.794;24.150;2023-08-06T10:18:46;4.03;;;2.70;;
21517;SDS011;61765;45.794;24.150;2023-08-06T10:26:52;3.50;;;2.42;;
21517;SDS011;61765;45.794;24.150;2023-08-06T10:35:06;9.15;;;4.10;;
21517;SDS011;61765;45.794;24.150;2023-08-06T10:43:25;6.68;;;3.40;;
21517;SDS011;61765;45.794;24.150;2023-08-06T10:51:34;8.90;;;4.57;;
21517;SDS011;61765;45.794;24.150;2023-08-06T10:59:41;6.85;;;4.65;;
21517;SDS011;61765;45.794;24.150;2023-08-06T11:07:49;7.22;;;3.90;;
21517;SDS011;61765;45.794;24.150;2023-08-06T11:15:54;7.72;;;3.47;;
21517;SDS011;61765;45.794;24.150;2023-08-06T11:24:03;6.70;;;3.20;;
21517;SDS011;61765;45.794;24.150;2023-08-06T11:32:09;2.70;;;2.05;;
21517;SDS011;61765;45.794;24.150;2023-08-06T11:40:21;7.18;;;3.75;;
21517;SDS011;61765;45.794;24.150;2023-08-06T11:48:28;11.20;;;4.82;;
21517;SDS011;61765;45.794;24.150;2023-08-06T11:56:36;6.53;;;3.80;;
21517;SDS011;61765;45.794;24.150;2023-08-06T12:13:17;6.85;;;2.80;;
21517;SDS011;61765;45.794;24.150;2023-08-06T12:21:22;3.25;;;2.15;;
21517;SDS011;61765;45.794;24.150;2023-08-06T12:29:30;3.70;;;2.40;;
21517;SDS011;61765;45.794;24.150;2023-08-06T12:37:36;5.35;;;2.60;;
21517;SDS011;61765;45.794;24.150;2023-08-06T12:45:44;3.13;;;2.15;;
21517;SDS011;61765;45.794;24.150;2023-08-06T12:53:50;4.00;;;1.92;;
21517;SDS011;61765;45.794;24.150;2023-08-06T13:01:58;5.03;;;2.63;;
21517;SDS011;61765;45.794;24.150;2023-08-06T13:10:05;4.00;;;2.20;;
21517;SDS011;61765;45.794;24.150;2023-08-06T13:18:13;3.08;;;2.47;;
21517;SDS011;61765;45.794;24.150;2023-08-06T13:26:19;5.13;;;2.65;;
21517;SDS011;61765;45.794;24.150;2023-08-06T13:34:27;3.85;;;2.40;;
21517;SDS011;61765;45.794;24.150;2023-08-06T13:42:33;2.60;;;2.10;;
21517;SDS011;61765;45.794;24.150;2023-08-06T13:50:41;2.75;;;2.10;;
21517;SDS011;61765;45.794;24.150;2023-08-06T13:58:47;2.35;;;2.15;;
21517;SDS011;61765;45.794;24.150;2023-08-06T14:06:55;4.00;;;2.40;;
21517;SDS011;61765;45.794;24.150;2023-08-06T14:15:01;3.58;;;2.35;;
21517;SDS011;61765;45.794;24.150;2023-08-06T14:23:11;3.75;;;2.20;;
21517;SDS011;61765;45.794;24.150;2023-08-06T14:31:17;4.18;;;2.10;;
21517;SDS011;61765;45.794;24.150;2023-08-06T14:39:25;5.75;;;2.80;;
21517;SDS011;61765;45.794;24.150;2023-08-06T14:47:30;3.45;;;2.10;;
21517;SDS011;61765;45.794;24.150;2023-08-06T14:55:38;2.40;;;1.90;;
21517;SDS011;61765;45.794;24.150;2023-08-06T15:03:44;2.20;;;1.60;;
21517;SDS011;61765;45.794;24.150;2023-08-06T15:11:52;2.35;;;1.80;;
21517;SDS011;61765;45.794;24.150;2023-08-06T15:19:58;3.92;;;2.00;;
21517;SDS011;61765;45.794;24.150;2023-08-06T15:28:06;2.55;;;1.75;;
21517;SDS011;61765;45.794;24.150;2023-08-06T15:36:11;2.40;;;1.88;;
21517;SDS011;61765;45.794;24.150;2023-08-06T15:44:19;5.75;;;1.90;;
21517;SDS011;61765;45.794;24.150;2023-08-06T15:52:25;2.08;;;1.83;;
21517;SDS011;61765;45.794;24.150;2023-08-06T16:00:33;3.28;;;2.03;;
21517;SDS011;61765;45.794;24.150;2023-08-06T16:08:38;2.35;;;1.90;;
21517;SDS011;61765;45.794;24.150;2023-08-06T16:16:47;1.98;;;1.60;;
21517;SDS011;61765;45.794;24.150;2023-08-06T16:24:53;1.92;;;1.67;;
21517;SDS011;61765;45.794;24.150;2023-08-06T16:33:01;2.38;;;1.70;;
21517;SDS011;61765;45.794;24.150;2023-08-06T16:41:06;2.72;;;1.80;;
21517;SDS011;61765;45.794;24.150;2023-08-06T16:49:15;4.97;;;2.30;;
21517;SDS011;61765;45.794;24.150;2023-08-06T16:57:20;2.90;;;2.08;;
21517;SDS011;61765;45.794;24.150;2023-08-06T17:05:31;2.45;;;2.25;;
21517;SDS011;61765;45.794;24.150;2023-08-06T17:15:06;3.20;;;2.50;;
21517;SDS011;61765;45.794;24.150;2023-08-06T17:23:32;3.45;;;1.98;;
21517;SDS011;61765;45.794;24.150;2023-08-06T17:31:37;3.50;;;2.30;;
21517;SDS011;61765;45.794;24.150;2023-08-06T17:39:52;4.40;;;2.28;;
21517;SDS011;61765;45.794;24.150;2023-08-06T17:48:05;6.18;;;3.20;;
21517;SDS011;61765;45.794;24.150;2023-08-06T17:56:15;3.97;;;3.58;;
21517;SDS011;61765;45.794;24.150;2023-08-06T18:04:26;5.85;;;5.25;;
21517;SDS011;61765;45.794;24.150;2023-08-06T18:12:35;8.35;;;5.65;;
21517;SDS011;61765;45.794;24.150;2023-08-06T18:20:44;9.00;;;6.60;;
21517;SDS011;61765;45.794;24.150;2023-08-06T18:28:53;9.55;;;6.10;;
21517;SDS011;61765;45.794;24.150;2023-08-06T18:36:58;9.85;;;5.18;;
21517;SDS011;61765;45.794;24.150;2023-08-06T18:45:07;6.88;;;4.70;;
21517;SDS011;61765;45.794;24.150;2023-08-06T18:53:13;6.25;;;4.93;;
21517;SDS011;61765;45.794;24.150;2023-08-06T19:01:21;8.07;;;5.05;;
21517;SDS011;61765;45.794;24.150;2023-08-06T19:09:26;7.65;;;5.38;;
21517;SDS011;61765;45.794;24.150;2023-08-06T19:17:35;7.38;;;5.80;;
21517;SDS011;61765;45.794;24.150;2023-08-06T19:25:40;8.00;;;5.05;;
21517;SDS011;61765;45.794;24.150;2023-08-06T19:33:49;5.00;;;4.15;;
21517;SDS011;61765;45.794;24.150;2023-08-06T19:41:55;6.00;;;3.42;;
21517;SDS011;61765;45.794;24.150;2023-08-06T19:50:03;4.03;;;3.40;;
21517;SDS011;61765;45.794;24.150;2023-08-06T19:58:09;2.75;;;1.73;;
21517;SDS011;61765;45.794;24.150;2023-08-06T20:06:17;3.58;;;1.65;;
21517;SDS011;61765;45.794;24.150;2023-08-06T20:22:35;2.88;;;1.45;;
21517;SDS011;61765;45.794;24.150;2023-08-06T20:30:41;2.63;;;1.58;;
21517;SDS011;61765;45.794;24.150;2023-08-06T20:38:49;1.17;;;1.02;;
21517;SDS011;61765;45.794;24.150;2023-08-06T20:46:56;2.15;;;1.40;;
21517;SDS011;61765;45.794;24.150;2023-08-06T20:55:05;3.90;;;1.42;;
21517;SDS011;61765;45.794;24.150;2023-08-06T21:03:11;2.92;;;1.55;;
21517;SDS011;61765;45.794;24.150;2023-08-06T21:11:25;1.00;;;0.85;;
21517;SDS011;61765;45.794;24.150;2023-08-06T21:19:31;0.75;;;0.65;;
21517;SDS011;61765;45.794;24.150;2023-08-06T21:27:40;1.75;;;1.00;;
21517;SDS011;61765;45.794;24.150;2023-08-06T21:35:49;0.70;;;0.63;;
21517;SDS011;61765;45.794;24.150;2023-08-06T21:43:57;1.10;;;1.00;;
21517;SDS011;61765;45.794;24.150;2023-08-06T21:52:03;1.02;;;0.63;;
21517;SDS011;61765;45.794;24.150;2023-08-06T22:00:13;2.25;;;1.00;;
21517;SDS011;61765;45.794;24.150;2023-08-06T22:08:20;1.85;;;0.80;;
21517;SDS011;61765;45.794;24.150;2023-08-06T22:16:28;0.80;;;0.57;;
21517;SDS011;61765;45.794;24.150;2023-08-06T22:24:34;0.80;;;0.80;;
21517;SDS011;61765;45.794;24.150;2023-08-06T22:32:42;0.60;;;0.50;;
21517;SDS011;61765;45.794;24.150;2023-08-06T22:40:48;0.60;;;0.60;;
21517;SDS011;61765;45.794;24.150;2023-08-06T22:48:56;1.30;;;0.88;;
21517;SDS011;61765;45.794;24.150;2023-08-06T22:57:02;0.70;;;0.60;;
21517;SDS011;61765;45.794;24.150;2023-08-06T23:05:10;2.40;;;0.70;;
21517;SDS011;61765;45.794;24.150;2023-08-06T23:13:15;1.10;;;1.00;;
21517;SDS011;61765;45.794;24.150;2023-08-06T23:21:23;1.17;;;0.95;;
21517;SDS011;61765;45.794;24.150;2023-08-06T23:29:29;1.77;;;0.93;;
21517;SDS011;61765;45.794;24.150;2023-08-06T23:37:37;1.02;;;0.60;;
21517;SDS011;61765;45.794;24.150;2023-08-06T23:45:42;0.70;;;0.60;;
21517;SDS011;61765;45.794;24.150;2023-08-06T23:53:50;2.95;;;1.40;;
